createdAt,value
2023-05-20T00:00:51.038Z,0.74
2023-05-20T00:01:51.079Z,1.06
2023-05-20T00:02:51.180Z,1.11
2023-05-20T00:03:51.260Z,0.91
2023-05-20T00:04:51.254Z,0.78
2023-05-20T00:05:51.262Z,0.91
2023-05-20T00:06:51.302Z,0.72
2023-05-20T00:07:51.342Z,0.84
2023-05-20T00:08:51.377Z,1.12
2023-05-20T00:09:51.431Z,1.04
2023-05-20T00:10:51.420Z,1.00
2023-05-20T00:11:51.409Z,1.42
2023-05-20T00:12:51.411Z,1.14
2023-05-20T00:13:51.376Z,1.07
2023-05-20T00:14:51.785Z,1.02
2023-05-20T00:15:51.358Z,0.82
2023-05-20T00:16:51.392Z,0.99
2023-05-20T00:17:51.442Z,0.86
2023-05-20T00:18:51.392Z,0.78
2023-05-20T00:19:51.333Z,1.04
2023-05-20T00:20:51.363Z,0.87
2023-05-20T00:21:51.393Z,0.87
2023-05-20T00:22:51.468Z,0.92
2023-05-20T00:23:51.503Z,1.22
2023-05-20T00:24:51.533Z,1.08
2023-05-20T00:25:51.575Z,0.92
2023-05-20T00:26:51.630Z,0.99
2023-05-20T00:27:51.675Z,1.02
2023-05-20T00:28:51.717Z,1.11
2023-05-20T00:29:51.709Z,0.88
2023-05-20T00:30:51.714Z,1.32
2023-05-20T00:31:51.759Z,0.74
2023-05-20T00:32:51.790Z,1.04
2023-05-20T00:33:51.686Z,1.15
2023-05-20T00:34:51.693Z,0.88
2023-05-20T00:35:51.663Z,1.15
2023-05-20T00:36:51.643Z,0.90
2023-05-20T00:37:51.631Z,1.05
2023-05-20T00:38:51.628Z,1.19
2023-05-20T00:39:51.637Z,0.78
2023-05-20T00:40:51.714Z,0.86
2023-05-20T00:41:51.731Z,1.13
2023-05-20T00:42:51.797Z,0.79
2023-05-20T00:43:51.819Z,1.07
2023-05-20T00:44:51.873Z,0.91
2023-05-20T00:45:51.939Z,1.10
2023-05-20T00:46:51.971Z,1.08
2023-05-20T00:47:52.038Z,0.79
2023-05-20T00:48:52.054Z,0.83
2023-05-20T00:49:52.095Z,1.07
2023-05-20T00:50:52.149Z,1.02
2023-05-20T00:51:52.201Z,0.71
2023-05-20T00:52:52.234Z,0.91
2023-05-20T00:53:52.270Z,0.75
2023-05-20T00:54:52.328Z,0.98
2023-05-20T00:55:52.368Z,0.87
2023-05-20T00:56:52.415Z,0.95
2023-05-20T00:57:52.473Z,0.89
2023-05-20T00:58:52.503Z,1.11
2023-05-20T00:59:52.552Z,0.72
2023-05-20T01:00:52.616Z,0.97
2023-05-20T01:01:52.823Z,0.95
2023-05-20T01:02:52.765Z,1.04
2023-05-20T01:03:52.767Z,0.97
2023-05-20T01:04:52.766Z,1.09
2023-05-20T01:05:52.802Z,1.19
2023-05-20T01:06:52.857Z,1.16
2023-05-20T01:07:52.901Z,0.95
2023-05-20T01:08:52.943Z,1.07
2023-05-20T01:09:53.006Z,1.46
2023-05-20T01:10:53.071Z,0.99
2023-05-20T01:11:53.114Z,0.97
2023-05-20T01:12:53.172Z,1.03
2023-05-20T01:13:53.216Z,1.13
2023-05-20T01:14:53.263Z,0.82
2023-05-20T01:15:53.395Z,1.19
2023-05-20T01:16:53.357Z,1.05
2023-05-20T01:17:53.436Z,0.98
2023-05-20T01:18:53.482Z,0.91
2023-05-20T01:19:53.494Z,0.88
2023-05-20T01:20:53.543Z,1.24
2023-05-20T01:21:53.602Z,1.10
2023-05-20T01:22:53.657Z,0.91
2023-05-20T01:23:53.678Z,1.19
2023-05-20T01:24:53.728Z,1.12
2023-05-20T01:25:53.773Z,1.33
2023-05-20T01:26:53.811Z,1.22
2023-05-20T01:27:53.869Z,1.16
2023-05-20T01:28:53.927Z,0.90
2023-05-20T01:29:53.957Z,0.76
2023-05-20T01:30:54.060Z,0.99
2023-05-20T01:31:54.117Z,0.91
2023-05-20T01:32:54.188Z,0.83
2023-05-20T01:33:54.162Z,0.93
2023-05-20T01:34:54.226Z,0.92
2023-05-20T01:35:54.251Z,0.99
2023-05-20T01:36:54.303Z,0.82
2023-05-20T01:37:54.352Z,0.74
2023-05-20T01:38:54.386Z,0.77
2023-05-20T01:39:54.444Z,1.26
2023-05-20T01:40:54.486Z,1.26
2023-05-20T01:41:54.526Z,1.13
2023-05-20T01:42:54.595Z,0.92
2023-05-20T01:43:54.624Z,1.29
2023-05-20T01:44:54.673Z,0.74
2023-05-20T01:45:54.736Z,0.99
2023-05-20T01:46:54.807Z,0.80
2023-05-20T01:47:54.954Z,0.72
2023-05-20T01:48:54.875Z,0.85
2023-05-20T01:49:54.909Z,0.92
2023-05-20T01:50:54.977Z,1.13
2023-05-20T01:51:55.022Z,0.86
2023-05-20T01:52:55.082Z,0.68
2023-05-20T01:53:55.120Z,0.82
2023-05-20T01:54:55.168Z,1.11
2023-05-20T01:55:55.210Z,1.01
2023-05-20T01:56:55.261Z,0.85
2023-05-20T01:57:55.305Z,0.83
2023-05-20T01:58:55.355Z,0.83
2023-05-20T01:59:55.399Z,0.70
2023-05-20T02:00:55.494Z,1.18
2023-05-20T02:01:55.585Z,0.99
2023-05-20T02:02:55.583Z,0.96
2023-05-20T02:03:55.624Z,0.89
2023-05-20T02:04:55.656Z,0.90
2023-05-20T02:05:55.756Z,1.10
2023-05-20T02:06:55.762Z,0.74
2023-05-20T02:07:55.792Z,0.74
2023-05-20T02:08:55.841Z,0.83
2023-05-20T02:09:55.883Z,0.90
2023-05-20T02:10:55.943Z,0.76
2023-05-20T02:11:56.011Z,1.01
2023-05-20T02:12:56.047Z,0.95
2023-05-20T02:13:56.110Z,0.93
2023-05-20T02:14:56.148Z,1.00
2023-05-20T02:15:56.211Z,1.24
2023-05-20T02:16:56.332Z,0.94
2023-05-20T02:17:56.322Z,0.93
2023-05-20T02:18:56.398Z,0.57
2023-05-20T02:19:56.395Z,0.97
2023-05-20T02:20:56.452Z,0.64
2023-05-20T02:21:56.505Z,1.10
2023-05-20T02:22:56.584Z,0.84
2023-05-20T02:23:56.607Z,0.76
2023-05-20T02:24:56.648Z,1.05
2023-05-20T02:25:56.696Z,1.01
2023-05-20T02:26:56.757Z,1.06
2023-05-20T02:27:56.806Z,0.89
2023-05-20T02:28:56.858Z,0.91
2023-05-20T02:29:56.895Z,0.71
2023-05-20T02:30:56.951Z,0.91
2023-05-20T02:31:57.002Z,0.98
2023-05-20T02:32:57.080Z,1.22
2023-05-20T02:33:57.166Z,0.76
2023-05-20T02:34:57.199Z,1.04
2023-05-20T02:35:57.213Z,1.08
2023-05-20T02:36:57.285Z,0.83
2023-05-20T02:37:57.363Z,0.98
2023-05-20T02:38:57.414Z,0.86
2023-05-20T02:39:57.420Z,0.78
2023-05-20T02:40:57.474Z,0.97
2023-05-20T02:41:57.528Z,1.08
2023-05-20T02:42:57.602Z,0.88
2023-05-20T02:43:57.631Z,0.68
2023-05-20T02:44:57.692Z,0.99
2023-05-20T02:45:57.777Z,0.95
2023-05-20T02:46:57.794Z,1.30
2023-05-20T02:47:57.865Z,0.91
2023-05-20T02:48:57.900Z,0.93
2023-05-20T02:49:57.951Z,0.68
2023-05-20T02:50:57.990Z,1.00
2023-05-20T02:51:58.060Z,1.07
2023-05-20T02:52:58.058Z,0.74
2023-05-20T02:53:58.056Z,0.85
2023-05-20T02:54:58.067Z,0.97
2023-05-20T02:55:58.058Z,0.80
2023-05-20T02:56:58.067Z,0.70
2023-05-20T02:57:58.097Z,0.86
2023-05-20T02:58:58.101Z,0.97
2023-05-20T02:59:58.078Z,1.15
2023-05-20T03:00:58.157Z,0.88
2023-05-20T03:01:58.181Z,0.91
2023-05-20T03:02:58.171Z,0.90
2023-05-20T03:03:58.198Z,0.63
2023-05-20T03:04:58.215Z,1.20
2023-05-20T03:05:58.254Z,1.04
2023-05-20T03:06:58.341Z,1.12
2023-05-20T03:07:58.372Z,0.88
2023-05-20T03:08:58.430Z,0.88
2023-05-20T03:09:58.469Z,0.92
2023-05-20T03:10:58.539Z,1.10
2023-05-20T03:11:58.604Z,0.84
2023-05-20T03:12:58.679Z,1.02
2023-05-20T03:13:58.753Z,0.87
2023-05-20T03:14:58.789Z,0.96
2023-05-20T03:15:58.888Z,0.90
2023-05-20T03:16:58.911Z,1.00
2023-05-20T03:17:59.142Z,1.17
2023-05-20T03:18:59.089Z,0.89
2023-05-20T03:19:59.103Z,0.76
2023-05-20T03:20:59.167Z,1.14
2023-05-20T03:21:59.225Z,0.88
2023-05-20T03:22:59.317Z,1.31
2023-05-20T03:23:59.337Z,0.84
2023-05-20T03:24:59.406Z,1.21
2023-05-20T03:25:59.456Z,0.87
2023-05-20T03:26:59.547Z,1.11
2023-05-20T03:27:59.614Z,1.19
2023-05-20T03:28:59.648Z,1.14
2023-05-20T03:29:59.688Z,1.01
2023-05-20T03:30:59.773Z,1.30
2023-05-20T03:31:59.797Z,1.18
2023-05-20T03:32:59.892Z,0.98
2023-05-20T03:33:59.929Z,1.04
2023-05-20T03:34:59.974Z,1.19
2023-05-20T03:36:00.004Z,0.92
2023-05-20T03:37:00.037Z,1.15
2023-05-20T03:38:00.115Z,1.37
2023-05-20T03:39:00.121Z,1.05
2023-05-20T03:40:00.171Z,1.00
2023-05-20T03:41:00.139Z,1.24
2023-05-20T03:42:00.192Z,0.95
2023-05-20T03:43:00.127Z,1.04
2023-05-20T03:44:00.155Z,1.13
2023-05-20T03:45:00.129Z,1.02
2023-05-20T03:46:00.135Z,1.13
2023-05-20T03:47:00.174Z,1.17
2023-05-20T03:48:00.236Z,0.99
2023-05-20T03:49:00.147Z,1.15
2023-05-20T03:50:00.173Z,0.75
2023-05-20T03:51:00.154Z,1.31
2023-05-20T03:52:00.196Z,1.08
2023-05-20T03:53:00.159Z,0.96
2023-05-20T03:54:00.134Z,1.00
2023-05-20T03:55:00.185Z,1.04
2023-05-20T03:56:00.160Z,1.08
2023-05-20T03:57:00.171Z,1.07
2023-05-20T03:58:00.206Z,1.12
2023-05-20T03:59:00.210Z,1.45
2023-05-20T04:00:00.235Z,1.06
2023-05-20T04:01:00.247Z,0.85
2023-05-20T04:02:00.265Z,0.94
2023-05-20T04:03:00.364Z,1.04
2023-05-20T04:04:00.402Z,1.38
2023-05-20T04:05:00.331Z,1.21
2023-05-20T04:06:00.363Z,0.94
2023-05-20T04:07:00.359Z,1.07
2023-05-20T04:08:00.398Z,1.55
2023-05-20T04:09:00.420Z,0.95
2023-05-20T04:10:00.451Z,0.96
2023-05-20T04:11:00.461Z,1.20
2023-05-20T04:12:00.468Z,0.93
2023-05-20T04:13:00.471Z,0.90
2023-05-20T04:14:00.495Z,1.18
2023-05-20T04:15:00.475Z,1.04
2023-05-20T04:16:00.477Z,0.84
2023-05-20T04:17:00.541Z,1.14
2023-05-20T04:18:00.511Z,1.20
2023-05-20T04:19:00.535Z,1.23
2023-05-20T04:20:00.503Z,1.27
2023-05-20T04:21:00.523Z,0.94
2023-05-20T04:22:00.514Z,1.10
2023-05-20T04:23:00.533Z,1.11
2023-05-20T04:24:00.540Z,1.20
2023-05-20T04:25:00.557Z,0.98
2023-05-20T04:26:00.558Z,1.15
2023-05-20T04:27:00.573Z,1.20
2023-05-20T04:28:00.569Z,0.99
2023-05-20T04:29:00.568Z,1.05
2023-05-20T04:30:00.603Z,1.31
2023-05-20T04:31:00.603Z,0.92
2023-05-20T04:32:00.660Z,0.85
2023-05-20T04:33:00.678Z,1.21
2023-05-20T04:34:00.638Z,1.19
2023-05-20T04:35:00.648Z,1.42
2023-05-20T04:36:00.659Z,0.95
2023-05-20T04:37:00.680Z,1.31
2023-05-20T04:38:00.711Z,1.10
2023-05-20T04:39:00.721Z,1.66
2023-05-20T04:40:00.727Z,1.05
2023-05-20T04:41:00.752Z,1.33
2023-05-20T04:42:00.793Z,1.22
2023-05-20T04:43:00.793Z,1.15
2023-05-20T04:44:00.763Z,1.06
2023-05-20T04:45:00.786Z,1.06
2023-05-20T04:46:00.885Z,1.08
2023-05-20T04:47:00.860Z,1.17
2023-05-20T04:48:00.891Z,1.29
2023-05-20T04:49:00.904Z,1.01
2023-05-20T04:50:00.942Z,1.11
2023-05-20T04:51:00.967Z,1.02
2023-05-20T04:52:00.986Z,1.13
2023-05-20T04:53:01.022Z,1.26
2023-05-20T04:54:01.042Z,1.76
2023-05-20T04:55:01.067Z,1.46
2023-05-20T04:56:01.105Z,1.36
2023-05-20T04:57:01.115Z,1.69
2023-05-20T04:58:01.173Z,1.45
2023-05-20T04:59:01.181Z,1.56
2023-05-20T05:00:01.219Z,1.37
2023-05-20T05:01:01.447Z,1.56
2023-05-20T05:02:01.371Z,1.42
2023-05-20T05:03:01.370Z,1.66
2023-05-20T05:04:01.330Z,1.59
2023-05-20T05:05:01.487Z,1.70
2023-05-20T05:06:01.381Z,1.83
2023-05-20T05:07:01.429Z,1.67
2023-05-20T05:08:01.457Z,1.89
2023-05-20T05:09:01.477Z,1.46
2023-05-20T05:10:01.672Z,1.81
2023-05-20T05:11:01.522Z,1.54
2023-05-20T05:12:01.536Z,1.42
2023-05-20T05:13:01.524Z,1.64
2023-05-20T05:14:01.538Z,1.89
2023-05-20T05:15:01.545Z,1.92
2023-05-20T05:16:01.624Z,2.59
2023-05-20T05:17:01.568Z,2.31
2023-05-20T05:18:01.624Z,1.95
2023-05-20T05:19:01.631Z,1.70
2023-05-20T05:20:01.619Z,2.13
2023-05-20T05:21:01.653Z,1.76
2023-05-20T05:22:01.634Z,1.65
2023-05-20T05:23:01.707Z,1.61
2023-05-20T05:24:01.666Z,1.82
2023-05-20T05:25:01.682Z,1.64
2023-05-20T05:26:01.693Z,1.39
2023-05-20T05:27:01.710Z,1.42
2023-05-20T05:28:01.716Z,1.11
2023-05-20T05:29:01.725Z,1.22
2023-05-20T05:30:01.750Z,1.55
2023-05-20T05:31:01.752Z,1.51
2023-05-20T05:32:01.786Z,1.43
2023-05-20T05:33:01.979Z,1.52
2023-05-20T05:34:01.797Z,1.17
2023-05-20T05:35:01.819Z,1.68
2023-05-20T05:36:01.817Z,1.29
2023-05-20T05:37:01.852Z,1.08
2023-05-20T05:38:01.848Z,1.21
2023-05-20T05:39:01.863Z,1.22
2023-05-20T05:40:01.908Z,1.16
2023-05-20T05:41:01.936Z,1.38
2023-05-20T05:42:01.959Z,1.47
2023-05-20T05:43:01.991Z,1.54
2023-05-20T05:44:02.035Z,0.85
2023-05-20T05:45:02.040Z,1.31
2023-05-20T05:46:02.063Z,1.17
2023-05-20T05:47:02.154Z,1.30
2023-05-20T05:48:02.207Z,1.18
2023-05-20T05:49:02.163Z,1.47
2023-05-20T05:50:02.206Z,1.17
2023-05-20T05:51:02.243Z,1.15
2023-05-20T05:52:02.284Z,1.06
2023-05-20T05:53:02.313Z,0.85
2023-05-20T05:54:02.344Z,1.07
2023-05-20T05:55:02.385Z,1.12
2023-05-20T05:56:02.414Z,1.21
2023-05-20T05:57:03.221Z,1.07
2023-05-20T05:58:02.481Z,1.07
2023-05-20T05:59:02.542Z,1.02
2023-05-20T06:00:02.594Z,1.37
2023-05-20T06:01:02.676Z,1.06
2023-05-20T06:02:02.803Z,1.11
2023-05-20T06:03:02.716Z,1.05
2023-05-20T06:04:02.768Z,1.21
2023-05-20T06:05:02.734Z,1.25
2023-05-20T06:06:02.780Z,1.13
2023-05-20T06:07:02.831Z,1.11
2023-05-20T06:08:02.856Z,1.28
2023-05-20T06:09:02.877Z,1.03
2023-05-20T06:10:02.908Z,0.98
2023-05-20T06:11:02.949Z,1.30
2023-05-20T06:12:02.993Z,1.22
2023-05-20T06:13:03.041Z,1.13
2023-05-20T06:14:03.048Z,1.27
2023-05-20T06:15:03.094Z,1.12
2023-05-20T06:16:03.129Z,1.25
2023-05-20T06:17:03.285Z,1.32
2023-05-20T06:18:03.251Z,0.97
2023-05-20T06:19:03.885Z,1.11
2023-05-20T06:20:03.282Z,1.24
2023-05-20T06:21:03.300Z,1.12
2023-05-20T06:22:03.375Z,1.05
2023-05-20T06:23:03.372Z,1.18
2023-05-20T06:24:03.407Z,0.95
2023-05-20T06:25:03.454Z,1.06
2023-05-20T06:26:03.485Z,0.94
2023-05-20T06:27:03.531Z,1.09
2023-05-20T06:28:03.563Z,1.03
2023-05-20T06:29:03.587Z,1.15
2023-05-20T06:30:03.626Z,1.26
2023-05-20T06:31:03.721Z,1.17
2023-05-20T06:32:03.698Z,1.23
2023-05-20T06:33:03.782Z,1.21
2023-05-20T06:34:03.769Z,1.03
2023-05-20T06:35:03.812Z,0.78
2023-05-20T06:36:03.881Z,0.89
2023-05-20T06:37:03.897Z,1.01
2023-05-20T06:38:04.004Z,1.07
2023-05-20T06:39:03.982Z,1.37
2023-05-20T06:40:04.013Z,0.95
2023-05-20T06:41:04.052Z,1.23
2023-05-20T06:42:04.120Z,1.25
2023-05-20T06:43:04.120Z,1.05
2023-05-20T06:44:04.160Z,1.14
2023-05-20T06:45:04.194Z,1.23
2023-05-20T06:46:04.305Z,1.01
2023-05-20T06:47:04.267Z,1.22
2023-05-20T06:48:04.376Z,1.26
2023-05-20T06:49:04.389Z,1.05
2023-05-20T06:50:04.370Z,1.01
2023-05-20T06:51:04.409Z,1.05
2023-05-20T06:52:04.451Z,1.08
2023-05-20T06:53:04.491Z,0.97
2023-05-20T06:54:04.533Z,1.33
2023-05-20T06:55:04.640Z,1.22
2023-05-20T06:56:04.592Z,1.00
2023-05-20T06:57:04.635Z,1.21
2023-05-20T06:58:04.676Z,1.01
2023-05-20T06:59:04.719Z,1.09
2023-05-20T07:00:04.769Z,1.11
2023-05-20T07:01:04.798Z,0.99
2023-05-20T07:02:04.915Z,1.14
2023-05-20T07:03:04.937Z,1.12
2023-05-20T07:04:04.986Z,1.00
2023-05-20T07:05:04.956Z,1.00
2023-05-20T07:06:04.984Z,1.27
2023-05-20T07:07:05.026Z,1.22
2023-05-20T07:08:05.050Z,1.17
2023-05-20T07:09:05.089Z,1.25
2023-05-20T07:10:05.126Z,1.15
2023-05-20T07:11:05.158Z,1.09
2023-05-20T07:12:05.213Z,1.27
2023-05-20T07:13:05.223Z,1.17
2023-05-20T07:14:05.295Z,1.30
2023-05-20T07:15:05.292Z,1.03
2023-05-20T07:16:05.339Z,1.13
2023-05-20T07:17:05.336Z,1.14
2023-05-20T07:18:05.407Z,0.71
2023-05-20T07:19:05.441Z,1.18
2023-05-20T07:20:05.439Z,0.90
2023-05-20T07:21:05.444Z,1.30
2023-05-20T07:22:05.483Z,1.26
2023-05-20T07:23:05.529Z,1.61
2023-05-20T07:24:05.555Z,0.99
2023-05-20T07:25:05.584Z,1.05
2023-05-20T07:26:05.583Z,1.41
2023-05-20T07:27:05.584Z,1.11
2023-05-20T07:28:05.600Z,1.23
2023-05-20T07:29:05.599Z,1.30
2023-05-20T07:30:05.602Z,1.04
2023-05-20T07:31:05.601Z,1.16
2023-05-20T07:32:05.787Z,1.14
2023-05-20T07:33:05.674Z,1.47
2023-05-20T07:34:05.651Z,1.41
2023-05-20T07:35:05.670Z,1.13
2023-05-20T07:36:05.666Z,1.36
2023-05-20T07:37:05.675Z,1.05
2023-05-20T07:38:05.699Z,0.98
2023-05-20T07:39:08.421Z,1.15
2023-05-20T07:40:06.705Z,1.53
2023-05-20T07:41:05.727Z,1.35
2023-05-20T07:42:05.735Z,1.02
2023-05-20T07:43:05.722Z,1.18
2023-05-20T07:44:05.732Z,1.35
2023-05-20T07:45:05.728Z,1.49
2023-05-20T07:46:05.747Z,1.07
2023-05-20T07:47:05.721Z,1.34
2023-05-20T07:48:05.811Z,0.81
2023-05-20T07:49:05.755Z,1.11
2023-05-20T07:50:05.768Z,1.15
2023-05-20T07:51:05.765Z,1.17
2023-05-20T07:52:05.768Z,1.12
2023-05-20T07:53:05.776Z,1.41
2023-05-20T07:54:05.805Z,1.39
2023-05-20T07:55:05.799Z,1.43
2023-05-20T07:56:05.809Z,1.27
2023-05-20T07:57:05.793Z,1.18
2023-05-20T07:58:05.831Z,1.20
2023-05-20T07:59:05.825Z,1.06
2023-05-20T08:00:05.819Z,1.43
2023-05-20T08:01:05.820Z,1.13
2023-05-20T08:02:05.838Z,1.30
2023-05-20T08:03:05.992Z,1.44
2023-05-20T08:04:05.977Z,1.68
2023-05-20T08:05:05.847Z,1.29
2023-05-20T08:06:05.842Z,1.27
2023-05-20T08:07:05.848Z,1.64
2023-05-20T08:08:05.846Z,1.05
2023-05-20T08:09:05.863Z,1.57
2023-05-20T08:10:05.859Z,1.08
2023-05-20T08:11:05.865Z,1.50
2023-05-20T08:12:05.890Z,1.57
2023-05-20T08:13:05.878Z,1.46
2023-05-20T08:14:05.952Z,0.96
2023-05-20T08:15:05.933Z,1.41
2023-05-20T08:16:05.948Z,1.44
2023-05-20T08:17:05.981Z,1.67
2023-05-20T08:18:06.026Z,1.40
2023-05-20T08:19:06.020Z,1.33
2023-05-20T08:20:06.022Z,1.27
2023-05-20T08:21:06.027Z,1.60
2023-05-20T08:22:06.057Z,1.75
2023-05-20T08:23:06.065Z,1.43
2023-05-20T08:24:06.113Z,1.57
2023-05-20T08:25:06.113Z,1.78
2023-05-20T08:26:06.133Z,1.42
2023-05-20T08:27:06.162Z,1.85
2023-05-20T08:28:06.175Z,1.51
2023-05-20T08:29:06.221Z,1.49
2023-05-20T08:30:06.237Z,1.56
2023-05-20T08:31:06.249Z,1.54
2023-05-20T08:32:06.269Z,1.61
2023-05-20T08:33:06.315Z,1.29
2023-05-20T08:34:06.313Z,1.18
2023-05-20T08:35:06.335Z,1.67
2023-05-20T08:36:06.361Z,1.32
2023-05-20T08:37:06.381Z,1.57
2023-05-20T08:38:06.400Z,1.47
2023-05-20T08:39:06.424Z,1.79
2023-05-20T08:40:06.458Z,1.59
2023-05-20T08:41:06.469Z,1.48
2023-05-20T08:42:06.504Z,1.25
2023-05-20T08:43:06.520Z,1.19
2023-05-20T08:44:06.558Z,1.36
2023-05-20T08:45:06.578Z,1.40
2023-05-20T08:46:06.643Z,1.29
2023-05-20T08:47:06.625Z,1.53
2023-05-20T08:48:06.740Z,1.38
2023-05-20T08:49:06.701Z,1.44
2023-05-20T08:50:06.702Z,1.78
2023-05-20T08:51:06.733Z,1.44
2023-05-20T08:52:06.736Z,1.49
2023-05-20T08:53:06.781Z,1.72
2023-05-20T08:54:06.805Z,1.50
2023-05-20T08:55:06.818Z,1.30
2023-05-20T08:56:06.846Z,1.55
2023-05-20T08:57:06.853Z,1.43
2023-05-20T08:58:06.877Z,1.55
2023-05-20T08:59:06.909Z,1.79
2023-05-20T09:00:06.896Z,1.47
2023-05-20T09:01:06.924Z,1.59
2023-05-20T09:02:07.014Z,1.47
2023-05-20T09:03:07.010Z,1.34
2023-05-20T09:04:06.952Z,1.92
2023-05-20T09:05:06.988Z,1.58
2023-05-20T09:06:06.970Z,1.34
2023-05-20T09:07:06.971Z,1.44
2023-05-20T09:08:07.021Z,1.43
2023-05-20T09:09:06.996Z,1.48
2023-05-20T09:10:06.991Z,1.53
2023-05-20T09:11:07.020Z,1.70
2023-05-20T09:12:07.009Z,1.39
2023-05-20T09:13:07.034Z,1.68
2023-05-20T09:14:07.036Z,1.39
2023-05-20T09:15:07.039Z,1.71
2023-05-20T09:16:07.073Z,1.98
2023-05-20T09:17:07.056Z,0.92
2023-05-20T09:18:07.250Z,1.63
2023-05-20T09:19:07.103Z,1.04
2023-05-20T09:20:07.082Z,1.61
2023-05-20T09:21:07.192Z,1.49
2023-05-20T09:22:07.141Z,1.26
2023-05-20T09:23:07.117Z,1.28
2023-05-20T09:24:07.129Z,1.45
2023-05-20T09:25:07.132Z,1.64
2023-05-20T09:26:07.151Z,1.23
2023-05-20T09:27:07.152Z,1.46
2023-05-20T09:28:07.157Z,1.32
2023-05-20T09:29:07.163Z,1.49
2023-05-20T09:30:07.188Z,1.33
2023-05-20T09:31:07.215Z,1.36
2023-05-20T09:32:07.257Z,1.60
2023-05-20T09:33:07.255Z,1.35
2023-05-20T09:34:07.270Z,1.65
2023-05-20T09:35:07.310Z,1.41
2023-05-20T09:36:07.339Z,1.37
2023-05-20T09:37:07.349Z,1.33
2023-05-20T09:38:07.403Z,1.56
2023-05-20T09:39:07.396Z,1.64
2023-05-20T09:40:07.394Z,1.46
2023-05-20T09:41:07.437Z,1.95
2023-05-20T09:42:07.487Z,1.69
2023-05-20T09:43:07.537Z,1.78
2023-05-20T09:44:07.590Z,1.66
2023-05-20T09:45:07.643Z,1.48
2023-05-20T09:46:07.719Z,1.25
2023-05-20T09:47:08.683Z,1.50
2023-05-20T09:48:07.821Z,1.69
2023-05-20T09:49:07.853Z,1.50
2023-05-20T09:50:07.926Z,1.25
2023-05-20T09:51:08.367Z,1.20
2023-05-20T09:52:08.081Z,1.26
2023-05-20T09:53:08.139Z,1.20
2023-05-20T09:54:08.227Z,1.66
2023-05-20T09:55:08.310Z,1.47
2023-05-20T09:56:08.364Z,1.47
2023-05-20T09:57:08.435Z,1.32
2023-05-20T09:58:08.490Z,1.54
2023-05-20T09:59:08.584Z,1.29
2023-05-20T10:00:08.647Z,1.38
2023-05-20T10:01:08.749Z,1.87
2023-05-20T10:02:08.946Z,1.33
2023-05-20T10:03:08.987Z,1.40
2023-05-20T10:04:08.970Z,1.45
2023-05-20T10:05:09.028Z,1.51
2023-05-20T10:06:09.093Z,1.23
2023-05-20T10:07:09.117Z,1.51
2023-05-20T10:08:09.083Z,1.36
2023-05-20T10:09:09.113Z,1.62
2023-05-20T10:10:09.100Z,1.25
2023-05-20T10:11:09.089Z,1.30
2023-05-20T10:12:09.092Z,1.34
2023-05-20T10:13:09.092Z,1.19
2023-05-20T10:14:09.117Z,1.72
2023-05-20T10:15:09.119Z,1.35
2023-05-20T10:16:09.273Z,1.13
2023-05-20T10:17:09.223Z,1.79
2023-05-20T10:18:09.269Z,1.47
2023-05-20T10:19:09.388Z,1.49
2023-05-20T10:20:09.406Z,1.49
2023-05-20T10:21:09.466Z,1.35
2023-05-20T10:22:09.535Z,1.46
2023-05-20T10:23:09.591Z,1.26
2023-05-20T10:24:09.703Z,1.27
2023-05-20T10:25:09.700Z,1.08
2023-05-20T10:26:09.760Z,1.32
2023-05-20T10:27:09.826Z,1.12
2023-05-20T10:28:09.878Z,1.58
2023-05-20T10:29:11.665Z,1.28
2023-05-20T10:30:10.006Z,1.28
2023-05-20T10:31:10.057Z,1.43
2023-05-20T10:32:10.150Z,1.49
2023-05-20T10:33:10.348Z,1.47
2023-05-20T10:34:10.219Z,1.30
2023-05-20T10:35:10.302Z,1.18
2023-05-20T10:36:10.324Z,1.28
2023-05-20T10:37:10.390Z,1.33
2023-05-20T10:38:10.442Z,1.33
2023-05-20T10:39:10.492Z,1.36
2023-05-20T10:40:10.536Z,1.43
2023-05-20T10:41:10.575Z,1.36
2023-05-20T10:42:10.633Z,1.44
2023-05-20T10:43:10.691Z,1.43
2023-05-20T10:44:10.740Z,1.23
2023-05-20T10:45:10.826Z,1.18
2023-05-20T10:46:21.596Z,1.43
2023-05-20T10:48:10.890Z,1.76
2023-05-20T10:49:10.939Z,1.31
2023-05-20T10:50:10.785Z,1.38
2023-05-20T10:51:10.780Z,1.17
2023-05-20T10:52:10.780Z,1.85
2023-05-20T10:53:18.539Z,1.51
2023-05-20T10:54:11.745Z,1.76
2023-05-20T10:55:10.726Z,1.42
2023-05-20T10:56:10.731Z,1.21
2023-05-20T10:57:10.706Z,1.58
2023-05-20T10:58:10.699Z,1.68
2023-05-20T10:59:10.694Z,1.57
2023-05-20T11:00:10.704Z,1.31
2023-05-20T11:01:10.729Z,1.46
2023-05-20T11:02:10.667Z,1.43
2023-05-20T11:03:10.767Z,1.58
2023-05-20T11:04:10.760Z,1.30
2023-05-20T11:05:10.737Z,1.36
2023-05-20T11:06:10.776Z,1.29
2023-05-20T11:07:10.844Z,1.22
2023-05-20T11:08:24.630Z,1.71
2023-05-20T11:09:11.875Z,1.58
2023-05-20T11:10:10.873Z,1.74
2023-05-20T11:11:10.861Z,1.61
2023-05-20T11:12:10.852Z,1.79
2023-05-20T11:13:10.860Z,1.37
2023-05-20T11:14:10.834Z,1.31
2023-05-20T11:15:10.827Z,1.56
2023-05-20T11:16:10.866Z,1.27
2023-05-20T11:17:10.893Z,1.58
2023-05-20T11:18:10.820Z,1.80
2023-05-20T11:19:10.792Z,1.06
2023-05-20T11:20:10.771Z,1.31
2023-05-20T11:21:10.787Z,1.25
2023-05-20T11:22:10.823Z,1.55
2023-05-20T11:23:10.847Z,1.34
2023-05-20T11:24:10.875Z,1.31
2023-05-20T11:25:10.910Z,1.26
2023-05-20T11:26:10.976Z,1.27
2023-05-20T11:27:10.990Z,1.07
2023-05-20T11:28:11.009Z,1.76
2023-05-20T11:29:11.051Z,1.40
2023-05-20T11:30:11.075Z,1.39
2023-05-20T11:31:11.097Z,1.20
2023-05-20T11:32:11.144Z,1.45
2023-05-20T11:33:11.185Z,1.45
2023-05-20T11:34:11.179Z,1.42
2023-05-20T11:35:11.205Z,1.41
2023-05-20T11:36:23.922Z,1.49
2023-05-20T11:37:12.220Z,1.65
2023-05-20T11:38:11.202Z,1.67
2023-05-20T11:39:11.187Z,1.65
2023-05-20T11:40:11.162Z,1.35
2023-05-20T11:41:11.153Z,1.16
2023-05-20T11:42:11.136Z,1.40
2023-05-20T11:43:11.111Z,1.74
2023-05-20T11:44:11.114Z,1.50
2023-05-20T11:45:11.081Z,1.12
2023-05-20T11:46:11.102Z,1.26
2023-05-20T11:47:11.052Z,1.25
2023-05-20T11:48:11.068Z,1.23
2023-05-20T11:49:11.061Z,1.15
2023-05-20T11:50:11.021Z,1.30
2023-05-20T11:51:11.000Z,1.59
2023-05-20T11:52:11.011Z,1.90
2023-05-20T11:53:10.986Z,1.83
2023-05-20T11:54:10.973Z,1.38
2023-05-20T11:55:10.948Z,1.50
2023-05-20T11:56:10.929Z,1.58
2023-05-20T11:57:10.922Z,1.48
2023-05-20T11:58:10.906Z,1.49
2023-05-20T11:59:10.885Z,1.25
2023-05-20T12:00:10.858Z,1.61
2023-05-20T12:01:21.740Z,1.44
2023-05-20T12:02:12.627Z,1.67
2023-05-20T12:03:10.860Z,1.13
2023-05-20T12:04:11.097Z,1.40
2023-05-20T12:05:10.763Z,1.14
2023-05-20T12:06:10.743Z,1.65
2023-05-20T12:07:10.738Z,1.18
2023-05-20T12:08:10.706Z,1.32
2023-05-20T12:09:10.699Z,1.29
2023-05-20T12:10:10.678Z,1.56
2023-05-20T12:11:10.679Z,1.39
2023-05-20T12:12:10.647Z,1.15
2023-05-20T12:13:10.641Z,1.35
2023-05-20T12:14:10.620Z,1.69
2023-05-20T12:15:10.604Z,1.18
2023-05-20T12:16:10.626Z,1.12
2023-05-20T12:17:10.577Z,1.20
2023-05-20T12:18:10.672Z,1.92
2023-05-20T12:19:10.568Z,1.37
2023-05-20T12:20:10.540Z,1.49
2023-05-20T12:21:10.575Z,1.18
2023-05-20T12:22:10.527Z,1.29
2023-05-20T12:23:10.523Z,1.07
2023-05-20T12:24:10.505Z,1.17
2023-05-20T12:25:10.499Z,1.57
2023-05-20T12:26:10.477Z,1.29
2023-05-20T12:27:10.469Z,1.41
2023-05-20T12:28:10.457Z,1.67
2023-05-20T12:29:10.437Z,1.83
2023-05-20T12:30:10.422Z,1.66
2023-05-20T12:31:10.474Z,1.28
2023-05-20T12:32:10.481Z,1.38
2023-05-20T12:33:10.380Z,1.32
2023-05-20T12:34:10.371Z,1.20
2023-05-20T12:35:10.348Z,1.63
2023-05-20T12:36:10.377Z,0.89
2023-05-20T12:37:10.351Z,1.60
2023-05-20T12:38:10.349Z,1.38
2023-05-20T12:39:10.488Z,1.75
2023-05-20T12:40:10.432Z,1.41
2023-05-20T12:41:10.389Z,1.83
2023-05-20T12:42:10.412Z,1.45
2023-05-20T12:43:10.431Z,1.49
2023-05-20T12:44:10.463Z,1.52
2023-05-20T12:45:10.467Z,1.45
2023-05-20T12:46:10.493Z,1.45
2023-05-20T12:47:10.572Z,1.46
2023-05-20T12:48:10.559Z,1.46
2023-05-20T12:49:10.565Z,1.16
2023-05-20T12:50:10.600Z,1.16
2023-05-20T12:51:10.571Z,1.49
2023-05-20T12:52:18.981Z,1.63
2023-05-20T12:53:11.591Z,1.40
2023-05-20T12:54:10.574Z,1.65
2023-05-20T12:55:10.615Z,1.44
2023-05-20T12:56:10.542Z,1.72
2023-05-20T12:57:10.522Z,1.04
2023-05-20T12:58:10.519Z,1.23
2023-05-20T12:59:10.505Z,1.40
2023-05-20T13:00:10.504Z,1.47
2023-05-20T13:01:10.625Z,1.60
2023-05-20T13:02:10.610Z,1.40
2023-05-20T13:03:10.611Z,1.31
2023-05-20T13:04:10.501Z,1.26
2023-05-20T13:05:10.391Z,1.14
2023-05-20T13:06:10.380Z,1.55
2023-05-20T13:07:10.363Z,1.40
2023-05-20T13:08:10.341Z,1.44
2023-05-20T13:09:10.332Z,1.43
2023-05-20T13:10:10.317Z,1.20
2023-05-20T13:11:10.318Z,1.71
2023-05-20T13:12:10.275Z,1.16
2023-05-20T13:13:10.277Z,1.75
2023-05-20T13:14:10.265Z,1.58
2023-05-20T13:15:10.234Z,1.40
2023-05-20T13:16:10.265Z,1.31
2023-05-20T13:17:10.319Z,1.23
2023-05-20T13:18:10.336Z,1.74
2023-05-20T13:19:10.317Z,1.63
2023-05-20T13:20:10.222Z,1.23